Terminal Aerodrome Forecast
Issued by NWS

Home | Current Version | Previous Version | Graphics & Text | Print | Product List | Glossary On
Versions: 1 2 3 4 5 6 7 8 9 10 11 12 13 14 15 16 17 18
000
FTUS43 KGRB 231700
TAFAUW
TAF
KAUW 231728Z 2318/2418 23012G18KT P6SM SCT040 OVC070 WS016/25040KT
      TEMPO 2318/2320 -PLSN SCT035 OVC050
     FM232000 25009KT P6SM SCT035 OVC050
     FM232300 27008KT P6SM SCT050 SCT100
     FM240300 30007KT P6SM BKN020=

USA.gov is the U.S. government's official web portal to all federal, state and local government web resources and services.